Letterkenny Army Depot, Pennsylvania
Current Conditions -  °F | °C
As of 6:53 AM on Sunday 25 Jan 2015 (Local Time) from KHGR Reporting Station
Overcast Overcast  
Wind Chill: 32°   Ceiling: 3300
Heat Index: 37°   Visibility: 10mi
Dew Point: 28°   Wind: 7mph
Humidity: 70%   Direction: 220°SW
Pressure: 29.76"   Gusts: NA
Location:  39.9438°N, 77.6827°W
Report Text: KHGR 251153Z 22006KT 10SM OVC033 03/M02 A2976 RMK AO2 SLP092 T00281022 10033 20022 53020
Loading
Personal Weather Stations






























Interactive Weather Map New forecast layout! Learn more

10-Day Weather Forecast

Advertisements
Track Severe Weather on mobile